sensor_id;sensor_type;location;lat;lon;timestamp;P1;durP1;ratioP1;P2;durP2;ratioP2
5813;SDS011;2933;52.302;8.134;2022-07-31T00:00:38;2.03;;;1.93;;
5813;SDS011;2933;52.302;8.134;2022-07-31T00:05:41;1.90;;;1.80;;
5813;SDS011;2933;52.302;8.134;2022-07-31T00:10:44;1.90;;;1.80;;
5813;SDS011;2933;52.302;8.134;2022-07-31T00:15:45;4.33;;;1.97;;
5813;SDS011;2933;52.302;8.134;2022-07-31T00:20:48;2.10;;;2.00;;
5813;SDS011;2933;52.302;8.134;2022-07-31T00:25:50;3.37;;;1.67;;
5813;SDS011;2933;52.302;8.134;2022-07-31T00:30:52;3.03;;;1.97;;
5813;SDS011;2933;52.302;8.134;2022-07-31T00:35:54;3.33;;;2.10;;
5813;SDS011;2933;52.302;8.134;2022-07-31T00:40:56;2.30;;;2.20;;
5813;SDS011;2933;52.302;8.134;2022-07-31T00:45:58;2.00;;;1.90;;
5813;SDS011;2933;52.302;8.134;2022-07-31T00:51:01;2.53;;;2.33;;
5813;SDS011;2933;52.302;8.134;2022-07-31T00:56:03;2.53;;;2.30;;
5813;SDS011;2933;52.302;8.134;2022-07-31T01:01:05;4.10;;;2.53;;
5813;SDS011;2933;52.302;8.134;2022-07-31T01:06:08;3.57;;;2.10;;
5813;SDS011;2933;52.302;8.134;2022-07-31T01:11:11;2.70;;;2.50;;
5813;SDS011;2933;52.302;8.134;2022-07-31T01:16:16;2.13;;;2.03;;
5813;SDS011;2933;52.302;8.134;2022-07-31T01:21:22;2.57;;;2.47;;
5813;SDS011;2933;52.302;8.134;2022-07-31T01:26:31;2.83;;;2.67;;
5813;SDS011;2933;52.302;8.134;2022-07-31T01:31:42;3.10;;;2.87;;
5813;SDS011;2933;52.302;8.134;2022-07-31T01:36:46;4.33;;;2.47;;
5813;SDS011;2933;52.302;8.134;2022-07-31T01:41:57;5.30;;;2.83;;
5813;SDS011;2933;52.302;8.134;2022-07-31T01:47:03;2.60;;;2.50;;
5813;SDS011;2933;52.302;8.134;2022-07-31T01:52:05;3.20;;;2.43;;
5813;SDS011;2933;52.302;8.134;2022-07-31T01:57:08;5.30;;;2.80;;
5813;SDS011;2933;52.302;8.134;2022-07-31T02:02:12;2.57;;;2.37;;
5813;SDS011;2933;52.302;8.134;2022-07-31T02:07:15;2.60;;;2.50;;
5813;SDS011;2933;52.302;8.134;2022-07-31T02:12:18;3.47;;;2.70;;
5813;SDS011;2933;52.302;8.134;2022-07-31T02:17:22;3.60;;;2.70;;
5813;SDS011;2933;52.302;8.134;2022-07-31T02:22:25;4.87;;;3.63;;
5813;SDS011;2933;52.302;8.134;2022-07-31T02:27:28;3.30;;;2.60;;
5813;SDS011;2933;52.302;8.134;2022-07-31T02:32:32;3.57;;;2.97;;
5813;SDS011;2933;52.302;8.134;2022-07-31T02:37:35;3.33;;;3.13;;
5813;SDS011;2933;52.302;8.134;2022-07-31T02:42:39;5.80;;;3.07;;
5813;SDS011;2933;52.302;8.134;2022-07-31T02:47:42;3.10;;;2.90;;
5813;SDS011;2933;52.302;8.134;2022-07-31T02:52:45;7.27;;;2.97;;
5813;SDS011;2933;52.302;8.134;2022-07-31T02:57:46;4.93;;;2.87;;
5813;SDS011;2933;52.302;8.134;2022-07-31T03:02:52;3.23;;;3.03;;
5813;SDS011;2933;52.302;8.134;2022-07-31T03:07:54;3.40;;;3.20;;
5813;SDS011;2933;52.302;8.134;2022-07-31T03:12:56;4.10;;;3.70;;
5813;SDS011;2933;52.302;8.134;2022-07-31T03:18:00;3.60;;;3.40;;
5813;SDS011;2933;52.302;8.134;2022-07-31T03:23:04;3.30;;;3.10;;
5813;SDS011;2933;52.302;8.134;2022-07-31T03:28:06;3.63;;;3.33;;
5813;SDS011;2933;52.302;8.134;2022-07-31T03:33:09;5.20;;;3.30;;
5813;SDS011;2933;52.302;8.134;2022-07-31T03:38:11;15.67;;;4.03;;
5813;SDS011;2933;52.302;8.134;2022-07-31T03:43:12;3.23;;;3.10;;
5813;SDS011;2933;52.302;8.134;2022-07-31T03:48:17;3.67;;;3.47;;
5813;SDS011;2933;52.302;8.134;2022-07-31T03:53:19;4.80;;;3.20;;
5813;SDS011;2933;52.302;8.134;2022-07-31T03:58:22;4.47;;;3.43;;
5813;SDS011;2933;52.302;8.134;2022-07-31T04:03:28;4.00;;;3.43;;
5813;SDS011;2933;52.302;8.134;2022-07-31T04:08:31;7.70;;;3.77;;
5813;SDS011;2933;52.302;8.134;2022-07-31T04:13:33;4.60;;;4.13;;
5813;SDS011;2933;52.302;8.134;2022-07-31T04:18:38;4.30;;;4.00;;
5813;SDS011;2933;52.302;8.134;2022-07-31T04:23:39;3.70;;;3.50;;
5813;SDS011;2933;52.302;8.134;2022-07-31T04:28:41;10.60;;;4.50;;
5813;SDS011;2933;52.302;8.134;2022-07-31T04:33:44;4.73;;;4.13;;
5813;SDS011;2933;52.302;8.134;2022-07-31T04:38:49;4.33;;;3.93;;
5813;SDS011;2933;52.302;8.134;2022-07-31T04:43:50;5.00;;;4.60;;
5813;SDS011;2933;52.302;8.134;2022-07-31T04:48:53;4.53;;;4.23;;
5813;SDS011;2933;52.302;8.134;2022-07-31T04:53:55;6.70;;;4.70;;
5813;SDS011;2933;52.302;8.134;2022-07-31T04:58:57;5.23;;;4.83;;
5813;SDS011;2933;52.302;8.134;2022-07-31T05:04:00;5.40;;;4.27;;
5813;SDS011;2933;52.302;8.134;2022-07-31T05:09:03;6.10;;;3.80;;
5813;SDS011;2933;52.302;8.134;2022-07-31T05:14:06;4.43;;;4.03;;
5813;SDS011;2933;52.302;8.134;2022-07-31T05:19:10;4.27;;;3.87;;
5813;SDS011;2933;52.302;8.134;2022-07-31T05:24:12;4.70;;;4.30;;
5813;SDS011;2933;52.302;8.134;2022-07-31T05:29:14;5.80;;;4.23;;
5813;SDS011;2933;52.302;8.134;2022-07-31T05:34:17;5.07;;;4.67;;
5813;SDS011;2933;52.302;8.134;2022-07-31T05:39:19;9.57;;;4.53;;
5813;SDS011;2933;52.302;8.134;2022-07-31T05:44:20;7.97;;;4.50;;
5813;SDS011;2933;52.302;8.134;2022-07-31T05:49:23;6.33;;;4.17;;
5813;SDS011;2933;52.302;8.134;2022-07-31T05:54:27;4.43;;;3.20;;
5813;SDS011;2933;52.302;8.134;2022-07-31T05:59:29;4.40;;;3.93;;
5813;SDS011;2933;52.302;8.134;2022-07-31T06:04:33;3.40;;;3.10;;
5813;SDS011;2933;52.302;8.134;2022-07-31T06:09:34;2.50;;;2.40;;
5813;SDS011;2933;52.302;8.134;2022-07-31T06:14:36;3.20;;;2.60;;
5813;SDS011;2933;52.302;8.134;2022-07-31T06:19:39;2.60;;;2.50;;
5813;SDS011;2933;52.302;8.134;2022-07-31T06:24:41;4.17;;;2.83;;
5813;SDS011;2933;52.302;8.134;2022-07-31T06:29:42;3.07;;;2.97;;
5813;SDS011;2933;52.302;8.134;2022-07-31T06:34:45;5.90;;;3.30;;
5813;SDS011;2933;52.302;8.134;2022-07-31T06:39:47;3.60;;;3.13;;
5813;SDS011;2933;52.302;8.134;2022-07-31T06:44:49;3.23;;;2.47;;
5813;SDS011;2933;52.302;8.134;2022-07-31T06:49:52;5.63;;;2.33;;
5813;SDS011;2933;52.302;8.134;2022-07-31T06:54:54;6.23;;;1.90;;
5813;SDS011;2933;52.302;8.134;2022-07-31T06:59:56;2.30;;;2.20;;
5813;SDS011;2933;52.302;8.134;2022-07-31T07:04:59;2.20;;;2.00;;
5813;SDS011;2933;52.302;8.134;2022-07-31T07:10:01;1.93;;;1.83;;
5813;SDS011;2933;52.302;8.134;2022-07-31T07:15:03;3.40;;;2.20;;
5813;SDS011;2933;52.302;8.134;2022-07-31T07:20:07;3.00;;;2.40;;
5813;SDS011;2933;52.302;8.134;2022-07-31T07:25:09;7.00;;;1.60;;
5813;SDS011;2933;52.302;8.134;2022-07-31T07:30:11;1.53;;;1.43;;
5813;SDS011;2933;52.302;8.134;2022-07-31T07:35:14;2.20;;;2.10;;
5813;SDS011;2933;52.302;8.134;2022-07-31T07:40:19;1.80;;;1.70;;
5813;SDS011;2933;52.302;8.134;2022-07-31T07:45:21;3.67;;;1.90;;
5813;SDS011;2933;52.302;8.134;2022-07-31T07:50:24;1.60;;;1.50;;
5813;SDS011;2933;52.302;8.134;2022-07-31T07:55:26;2.13;;;2.00;;
5813;SDS011;2933;52.302;8.134;2022-07-31T08:00:27;1.57;;;1.47;;
5813;SDS011;2933;52.302;8.134;2022-07-31T08:05:30;6.00;;;2.30;;
5813;SDS011;2933;52.302;8.134;2022-07-31T08:10:32;2.30;;;2.10;;
5813;SDS011;2933;52.302;8.134;2022-07-31T08:15:33;1.60;;;1.50;;
5813;SDS011;2933;52.302;8.134;2022-07-31T08:20:36;2.37;;;1.90;;
5813;SDS011;2933;52.302;8.134;2022-07-31T08:25:38;2.67;;;1.80;;
5813;SDS011;2933;52.302;8.134;2022-07-31T08:30:40;2.50;;;2.40;;
5813;SDS011;2933;52.302;8.134;2022-07-31T08:35:43;3.07;;;2.13;;
5813;SDS011;2933;52.302;8.134;2022-07-31T08:40:44;3.33;;;2.03;;
5813;SDS011;2933;52.302;8.134;2022-07-31T08:45:47;2.50;;;2.30;;
5813;SDS011;2933;52.302;8.134;2022-07-31T08:50:51;2.40;;;2.07;;
5813;SDS011;2933;52.302;8.134;2022-07-31T08:55:54;3.27;;;2.97;;
5813;SDS011;2933;52.302;8.134;2022-07-31T09:00:56;3.87;;;2.80;;
5813;SDS011;2933;52.302;8.134;2022-07-31T09:05:59;3.43;;;2.50;;
5813;SDS011;2933;52.302;8.134;2022-07-31T09:11:01;3.57;;;3.27;;
5813;SDS011;2933;52.302;8.134;2022-07-31T09:16:04;3.97;;;3.00;;
5813;SDS011;2933;52.302;8.134;2022-07-31T09:21:08;4.10;;;3.13;;
5813;SDS011;2933;52.302;8.134;2022-07-31T09:26:09;3.17;;;2.87;;
5813;SDS011;2933;52.302;8.134;2022-07-31T09:31:11;3.40;;;3.17;;
5813;SDS011;2933;52.302;8.134;2022-07-31T09:36:15;3.10;;;2.90;;
5813;SDS011;2933;52.302;8.134;2022-07-31T09:41:23;4.33;;;3.27;;
5813;SDS011;2933;52.302;8.134;2022-07-31T09:46:25;3.80;;;3.50;;
5813;SDS011;2933;52.302;8.134;2022-07-31T09:51:36;4.37;;;3.93;;
5813;SDS011;2933;52.302;8.134;2022-07-31T09:56:38;5.03;;;3.97;;
5813;SDS011;2933;52.302;8.134;2022-07-31T10:01:40;5.03;;;3.13;;
5813;SDS011;2933;52.302;8.134;2022-07-31T10:06:46;5.17;;;3.30;;
5813;SDS011;2933;52.302;8.134;2022-07-31T10:11:49;4.10;;;3.90;;
5813;SDS011;2933;52.302;8.134;2022-07-31T10:16:53;3.57;;;3.37;;
5813;SDS011;2933;52.302;8.134;2022-07-31T10:21:59;5.23;;;3.47;;
5813;SDS011;2933;52.302;8.134;2022-07-31T10:27:04;4.63;;;3.30;;
5813;SDS011;2933;52.302;8.134;2022-07-31T10:32:06;4.30;;;3.20;;
5813;SDS011;2933;52.302;8.134;2022-07-31T10:37:14;7.00;;;3.10;;
5813;SDS011;2933;52.302;8.134;2022-07-31T10:42:24;4.90;;;2.77;;
5813;SDS011;2933;52.302;8.134;2022-07-31T10:47:33;8.63;;;3.40;;
5813;SDS011;2933;52.302;8.134;2022-07-31T10:52:37;6.00;;;2.43;;
5813;SDS011;2933;52.302;8.134;2022-07-31T10:57:38;3.20;;;2.90;;
5813;SDS011;2933;52.302;8.134;2022-07-31T11:02:41;5.27;;;3.70;;
5813;SDS011;2933;52.302;8.134;2022-07-31T11:07:44;3.90;;;3.60;;
5813;SDS011;2933;52.302;8.134;2022-07-31T11:12:57;8.83;;;3.63;;
5813;SDS011;2933;52.302;8.134;2022-07-31T11:18:09;6.83;;;4.43;;
5813;SDS011;2933;52.302;8.134;2022-07-31T11:23:13;5.70;;;4.13;;
5813;SDS011;2933;52.302;8.134;2022-07-31T11:28:18;6.37;;;4.37;;
5813;SDS011;2933;52.302;8.134;2022-07-31T11:33:27;6.27;;;5.00;;
5813;SDS011;2933;52.302;8.134;2022-07-31T11:38:31;7.03;;;5.90;;
5813;SDS011;2933;52.302;8.134;2022-07-31T11:43:33;11.80;;;5.03;;
5813;SDS011;2933;52.302;8.134;2022-07-31T11:48:36;7.30;;;5.30;;
5813;SDS011;2933;52.302;8.134;2022-07-31T11:53:40;4.67;;;3.90;;
5813;SDS011;2933;52.302;8.134;2022-07-31T11:58:45;4.77;;;4.37;;
5813;SDS011;2933;52.302;8.134;2022-07-31T12:03:48;4.67;;;4.27;;
5813;SDS011;2933;52.302;8.134;2022-07-31T12:08:51;6.83;;;4.87;;
5813;SDS011;2933;52.302;8.134;2022-07-31T12:13:53;6.80;;;4.50;;
5813;SDS011;2933;52.302;8.134;2022-07-31T12:18:55;9.43;;;4.60;;
5813;SDS011;2933;52.302;8.134;2022-07-31T12:24:00;6.90;;;4.80;;
5813;SDS011;2933;52.302;8.134;2022-07-31T12:29:03;6.13;;;4.40;;
5813;SDS011;2933;52.302;8.134;2022-07-31T12:34:06;4.60;;;3.90;;
5813;SDS011;2933;52.302;8.134;2022-07-31T12:39:10;6.17;;;5.33;;
5813;SDS011;2933;52.302;8.134;2022-07-31T12:44:12;7.40;;;4.93;;
5813;SDS011;2933;52.302;8.134;2022-07-31T12:49:14;5.50;;;4.80;;
5813;SDS011;2933;52.302;8.134;2022-07-31T12:54:17;6.60;;;4.07;;
5813;SDS011;2933;52.302;8.134;2022-07-31T12:59:18;6.97;;;3.30;;
5813;SDS011;2933;52.302;8.134;2022-07-31T13:04:20;4.80;;;3.20;;
5813;SDS011;2933;52.302;8.134;2022-07-31T13:09:23;6.40;;;3.30;;
5813;SDS011;2933;52.302;8.134;2022-07-31T13:14:25;3.93;;;2.70;;
5813;SDS011;2933;52.302;8.134;2022-07-31T13:19:27;2.60;;;2.40;;
5813;SDS011;2933;52.302;8.134;2022-07-31T13:24:31;9.53;;;2.10;;
5813;SDS011;2933;52.302;8.134;2022-07-31T13:29:33;4.13;;;2.00;;
5813;SDS011;2933;52.302;8.134;2022-07-31T13:34:34;1.50;;;1.50;;
5813;SDS011;2933;52.302;8.134;2022-07-31T13:39:38;2.00;;;1.90;;
5813;SDS011;2933;52.302;8.134;2022-07-31T13:44:39;1.97;;;1.87;;
5813;SDS011;2933;52.302;8.134;2022-07-31T13:49:41;2.60;;;1.77;;
5813;SDS011;2933;52.302;8.134;2022-07-31T13:54:44;6.00;;;2.30;;
5813;SDS011;2933;52.302;8.134;2022-07-31T13:59:45;3.20;;;2.90;;
5813;SDS011;2933;52.302;8.134;2022-07-31T14:04:47;5.53;;;3.47;;
5813;SDS011;2933;52.302;8.134;2022-07-31T14:09:50;3.63;;;3.33;;
5813;SDS011;2933;52.302;8.134;2022-07-31T14:14:51;5.33;;;4.80;;
5813;SDS011;2933;52.302;8.134;2022-07-31T14:19:53;4.93;;;4.53;;
5813;SDS011;2933;52.302;8.134;2022-07-31T14:24:56;4.67;;;4.27;;
5813;SDS011;2933;52.302;8.134;2022-07-31T14:29:58;5.00;;;4.50;;
5813;SDS011;2933;52.302;8.134;2022-07-31T14:35:00;12.63;;;4.47;;
5813;SDS011;2933;52.302;8.134;2022-07-31T14:40:04;4.70;;;4.30;;
5813;SDS011;2933;52.302;8.134;2022-07-31T14:45:06;4.80;;;4.43;;
5813;SDS011;2933;52.302;8.134;2022-07-31T14:50:08;5.27;;;4.77;;
5813;SDS011;2933;52.302;8.134;2022-07-31T14:55:11;4.30;;;4.00;;
5813;SDS011;2933;52.302;8.134;2022-07-31T15:00:13;4.13;;;3.87;;
5813;SDS011;2933;52.302;8.134;2022-07-31T15:05:15;4.30;;;4.00;;
5813;SDS011;2933;52.302;8.134;2022-07-31T15:10:21;5.40;;;5.00;;
5813;SDS011;2933;52.302;8.134;2022-07-31T15:15:22;6.37;;;4.90;;
5813;SDS011;2933;52.302;8.134;2022-07-31T15:20:24;4.37;;;4.07;;
5813;SDS011;2933;52.302;8.134;2022-07-31T15:25:43;13.57;;;4.13;;
5813;SDS011;2933;52.302;8.134;2022-07-31T15:30:45;5.53;;;4.30;;
5813;SDS011;2933;52.302;8.134;2022-07-31T15:41:15;5.97;;;4.03;;
5813;SDS011;2933;52.302;8.134;2022-07-31T15:46:17;4.57;;;4.17;;
5813;SDS011;2933;52.302;8.134;2022-07-31T15:51:19;4.43;;;4.23;;
5813;SDS011;2933;52.302;8.134;2022-07-31T15:56:22;5.43;;;3.73;;
5813;SDS011;2933;52.302;8.134;2022-07-31T16:01:26;4.90;;;4.53;;
5813;SDS011;2933;52.302;8.134;2022-07-31T16:06:28;4.30;;;3.93;;
5813;SDS011;2933;52.302;8.134;2022-07-31T16:11:31;5.40;;;4.17;;
5813;SDS011;2933;52.302;8.134;2022-07-31T16:16:33;9.10;;;4.13;;
5813;SDS011;2933;52.302;8.134;2022-07-31T16:21:34;7.97;;;4.37;;
5813;SDS011;2933;52.302;8.134;2022-07-31T16:26:38;3.80;;;3.60;;
5813;SDS011;2933;52.302;8.134;2022-07-31T16:31:45;3.93;;;3.40;;
5813;SDS011;2933;52.302;8.134;2022-07-31T16:36:47;3.43;;;3.23;;
5813;SDS011;2933;52.302;8.134;2022-07-31T16:41:50;4.83;;;3.60;;
5813;SDS011;2933;52.302;8.134;2022-07-31T16:46:51;3.03;;;2.83;;
5813;SDS011;2933;52.302;8.134;2022-07-31T16:51:53;3.03;;;2.93;;
5813;SDS011;2933;52.302;8.134;2022-07-31T16:56:58;4.03;;;3.50;;
5813;SDS011;2933;52.302;8.134;2022-07-31T17:02:00;5.20;;;3.40;;
5813;SDS011;2933;52.302;8.134;2022-07-31T17:07:02;6.80;;;3.83;;
5813;SDS011;2933;52.302;8.134;2022-07-31T17:12:05;3.43;;;3.23;;
5813;SDS011;2933;52.302;8.134;2022-07-31T17:17:07;4.30;;;3.90;;
5813;SDS011;2933;52.302;8.134;2022-07-31T17:22:09;7.80;;;4.27;;
5813;SDS011;2933;52.302;8.134;2022-07-31T17:27:12;5.97;;;5.47;;
5813;SDS011;2933;52.302;8.134;2022-07-31T17:32:13;9.50;;;5.30;;
5813;SDS011;2933;52.302;8.134;2022-07-31T17:37:16;9.97;;;6.50;;
5813;SDS011;2933;52.302;8.134;2022-07-31T17:42:19;6.07;;;5.20;;
5813;SDS011;2933;52.302;8.134;2022-07-31T17:47:21;5.27;;;4.83;;
5813;SDS011;2933;52.302;8.134;2022-07-31T17:52:24;8.57;;;5.57;;
5813;SDS011;2933;52.302;8.134;2022-07-31T17:57:27;7.40;;;6.30;;
5813;SDS011;2933;52.302;8.134;2022-07-31T18:02:29;6.00;;;5.40;;
5813;SDS011;2933;52.302;8.134;2022-07-31T18:07:31;7.13;;;6.10;;
5813;SDS011;2933;52.302;8.134;2022-07-31T18:12:34;6.80;;;6.20;;
5813;SDS011;2933;52.302;8.134;2022-07-31T18:17:37;10.80;;;5.80;;
5813;SDS011;2933;52.302;8.134;2022-07-31T18:22:40;6.27;;;5.60;;
5813;SDS011;2933;52.302;8.134;2022-07-31T18:27:43;6.00;;;5.40;;
5813;SDS011;2933;52.302;8.134;2022-07-31T18:32:45;4.83;;;4.33;;
5813;SDS011;2933;52.302;8.134;2022-07-31T18:37:46;5.83;;;5.27;;
5813;SDS011;2933;52.302;8.134;2022-07-31T18:42:50;6.13;;;5.53;;
5813;SDS011;2933;52.302;8.134;2022-07-31T18:47:51;5.73;;;5.27;;
5813;SDS011;2933;52.302;8.134;2022-07-31T18:52:53;5.87;;;5.47;;
5813;SDS011;2933;52.302;8.134;2022-07-31T18:57:56;5.60;;;5.07;;
5813;SDS011;2933;52.302;8.134;2022-07-31T19:02:58;5.10;;;4.67;;
5813;SDS011;2933;52.302;8.134;2022-07-31T19:07:59;5.50;;;5.03;;
5813;SDS011;2933;52.302;8.134;2022-07-31T19:13:03;4.70;;;4.33;;
5813;SDS011;2933;52.302;8.134;2022-07-31T19:18:04;4.57;;;4.33;;
5813;SDS011;2933;52.302;8.134;2022-07-31T19:23:06;4.40;;;4.10;;
5813;SDS011;2933;52.302;8.134;2022-07-31T19:28:10;4.40;;;4.13;;
5813;SDS011;2933;52.302;8.134;2022-07-31T19:33:11;5.43;;;5.03;;
5813;SDS011;2933;52.302;8.134;2022-07-31T19:38:13;4.70;;;4.40;;
5813;SDS011;2933;52.302;8.134;2022-07-31T19:43:16;5.20;;;4.80;;
5813;SDS011;2933;52.302;8.134;2022-07-31T19:48:18;5.53;;;4.90;;
5813;SDS011;2933;52.302;8.134;2022-07-31T19:53:19;6.67;;;4.60;;
5813;SDS011;2933;52.302;8.134;2022-07-31T19:58:22;5.10;;;4.70;;
5813;SDS011;2933;52.302;8.134;2022-07-31T20:03:24;4.30;;;4.00;;
5813;SDS011;2933;52.302;8.134;2022-07-31T20:08:26;4.80;;;4.50;;
5813;SDS011;2933;52.302;8.134;2022-07-31T20:13:29;4.77;;;4.40;;
5813;SDS011;2933;52.302;8.134;2022-07-31T20:18:31;5.13;;;4.70;;
5813;SDS011;2933;52.302;8.134;2022-07-31T20:23:33;4.70;;;4.40;;
5813;SDS011;2933;52.302;8.134;2022-07-31T20:28:38;5.20;;;4.80;;
5813;SDS011;2933;52.302;8.134;2022-07-31T20:33:40;4.67;;;4.37;;
5813;SDS011;2933;52.302;8.134;2022-07-31T20:38:41;4.13;;;3.93;;
5813;SDS011;2933;52.302;8.134;2022-07-31T20:43:45;5.33;;;4.93;;
5813;SDS011;2933;52.302;8.134;2022-07-31T20:48:46;4.73;;;4.33;;
5813;SDS011;2933;52.302;8.134;2022-07-31T20:53:49;4.30;;;4.10;;
5813;SDS011;2933;52.302;8.134;2022-07-31T20:58:53;5.30;;;4.40;;
5813;SDS011;2933;52.302;8.134;2022-07-31T21:03:54;4.20;;;3.93;;
5813;SDS011;2933;52.302;8.134;2022-07-31T21:08:56;4.33;;;4.13;;
5813;SDS011;2933;52.302;8.134;2022-07-31T21:13:59;4.40;;;4.10;;
5813;SDS011;2933;52.302;8.134;2022-07-31T21:19:01;5.60;;;4.40;;
5813;SDS011;2933;52.302;8.134;2022-07-31T21:24:03;6.00;;;5.47;;
5813;SDS011;2933;52.302;8.134;2022-07-31T21:29:07;5.30;;;4.90;;
5813;SDS011;2933;52.302;8.134;2022-07-31T21:34:09;6.20;;;5.60;;
5813;SDS011;2933;52.302;8.134;2022-07-31T21:39:11;5.97;;;5.40;;
5813;SDS011;2933;52.302;8.134;2022-07-31T21:44:15;7.03;;;6.33;;
5813;SDS011;2933;52.302;8.134;2022-07-31T21:49:17;8.50;;;6.07;;
5813;SDS011;2933;52.302;8.134;2022-07-31T21:54:21;5.80;;;5.43;;
5813;SDS011;2933;52.302;8.134;2022-07-31T21:59:24;7.43;;;6.43;;
5813;SDS011;2933;52.302;8.134;2022-07-31T22:04:25;6.20;;;5.67;;
5813;SDS011;2933;52.302;8.134;2022-07-31T22:09:27;7.80;;;7.07;;
5813;SDS011;2933;52.302;8.134;2022-07-31T22:14:30;6.97;;;6.27;;
5813;SDS011;2933;52.302;8.134;2022-07-31T22:19:32;8.10;;;7.40;;
5813;SDS011;2933;52.302;8.134;2022-07-31T22:24:34;7.47;;;6.77;;
5813;SDS011;2933;52.302;8.134;2022-07-31T22:29:37;7.70;;;7.00;;
5813;SDS011;2933;52.302;8.134;2022-07-31T22:34:40;5.03;;;4.63;;
5813;SDS011;2933;52.302;8.134;2022-07-31T22:39:41;3.57;;;3.37;;
5813;SDS011;2933;52.302;8.134;2022-07-31T22:44:45;3.20;;;3.10;;
5813;SDS011;2933;52.302;8.134;2022-07-31T22:49:47;3.67;;;3.47;;
5813;SDS011;2933;52.302;8.134;2022-07-31T22:54:49;3.53;;;3.33;;
5813;SDS011;2933;52.302;8.134;2022-07-31T22:59:52;4.30;;;4.10;;
5813;SDS011;2933;52.302;8.134;2022-07-31T23:04:53;3.83;;;3.53;;
5813;SDS011;2933;52.302;8.134;2022-07-31T23:09:55;4.70;;;4.20;;
5813;SDS011;2933;52.302;8.134;2022-07-31T23:14:58;4.30;;;4.00;;
5813;SDS011;2933;52.302;8.134;2022-07-31T23:20:00;4.40;;;4.10;;
5813;SDS011;2933;52.302;8.134;2022-07-31T23:25:02;7.33;;;4.43;;
5813;SDS011;2933;52.302;8.134;2022-07-31T23:30:05;4.77;;;4.47;;
5813;SDS011;2933;52.302;8.134;2022-07-31T23:35:08;7.83;;;4.50;;
5813;SDS011;2933;52.302;8.134;2022-07-31T23:40:10;4.63;;;4.33;;
5813;SDS011;2933;52.302;8.134;2022-07-31T23:45:13;4.77;;;4.37;;
5813;SDS011;2933;52.302;8.134;2022-07-31T23:50:15;6.13;;;4.70;;
5813;SDS011;2933;52.302;8.134;2022-07-31T23:55:17;7.80;;;5.90;;
